createdAt,value
2022-10-23T00:02:09.642Z,1.04
2022-10-23T00:04:38.851Z,1.03
2022-10-23T00:07:07.931Z,1.00
2022-10-23T00:09:37.339Z,0.97
2022-10-23T00:12:07.079Z,0.91
2022-10-23T00:14:36.475Z,0.86
2022-10-23T00:17:06.061Z,0.81
2022-10-23T00:19:35.539Z,0.76
2022-10-23T00:22:04.967Z,0.70
2022-10-23T00:24:34.465Z,0.68
2022-10-23T00:27:06.480Z,0.68
2022-10-23T00:29:35.709Z,0.69
2022-10-23T00:32:05.228Z,0.72
2022-10-23T00:34:34.622Z,0.72
2022-10-23T00:37:04.102Z,0.69
2022-10-23T00:39:33.442Z,0.68
2022-10-23T00:42:03.152Z,0.66
2022-10-23T00:44:32.809Z,0.58
2022-10-23T00:47:02.669Z,0.63
2022-10-23T00:49:33.583Z,0.67
2022-10-23T00:52:09.435Z,0.69
2022-10-23T00:54:46.417Z,0.68
2022-10-23T00:57:17.819Z,0.61
2022-10-23T00:59:47.631Z,0.56
2022-10-23T01:02:17.440Z,0.49
2022-10-23T01:04:46.867Z,0.47
2022-10-23T01:07:35.135Z,0.48
2022-10-23T01:10:39.373Z,0.48
2022-10-23T01:13:18.582Z,0.46
2022-10-23T01:16:18.186Z,0.47
2022-10-23T01:19:07.498Z,0.47
2022-10-23T01:22:14.763Z,0.47
2022-10-23T01:25:06.758Z,0.44
2022-10-23T01:27:46.937Z,0.47
2022-10-23T01:30:19.024Z,0.48
2022-10-23T01:32:56.262Z,0.45
2022-10-23T01:35:34.295Z,0.42
2022-10-23T01:38:18.709Z,0.37
2022-10-23T01:41:06.336Z,0.37
2022-10-23T01:43:51.038Z,0.37
2022-10-23T01:46:21.231Z,0.41
2022-10-23T01:48:55.768Z,0.40
2022-10-23T01:51:29.514Z,0.38
2022-10-23T01:54:02.409Z,0.40
2022-10-23T01:56:36.367Z,0.43
2022-10-23T01:59:13.196Z,0.38
2022-10-23T02:01:48.359Z,0.39
2022-10-23T02:04:29.374Z,0.40
2022-10-23T02:06:59.661Z,0.36
2022-10-23T02:09:29.510Z,0.31
2022-10-23T02:12:22.965Z,0.30
2022-10-23T02:15:10.690Z,0.30
2022-10-23T02:18:03.431Z,0.32
2022-10-23T02:20:56.005Z,0.34
2022-10-23T02:23:35.622Z,0.29
2022-10-23T02:26:04.765Z,0.28
2022-10-23T02:28:44.956Z,0.27
2022-10-23T02:31:18.714Z,0.24
2022-10-23T02:33:49.712Z,0.24
2022-10-23T02:36:21.318Z,0.23
2022-10-23T02:38:50.851Z,0.23
2022-10-23T02:41:39.804Z,0.23
2022-10-23T02:44:41.044Z,0.22
2022-10-23T02:47:36.203Z,0.21
2022-10-23T02:50:55.957Z,0.25
2022-10-23T02:53:47.523Z,0.30
2022-10-23T02:56:41.225Z,0.33
2022-10-23T02:59:22.701Z,0.31
2022-10-23T03:02:04.476Z,0.30
2022-10-23T03:04:34.961Z,0.31
2022-10-23T03:07:04.444Z,0.26
2022-10-23T03:09:33.704Z,0.24
2022-10-23T03:12:03.020Z,0.25
2022-10-23T03:14:32.337Z,0.25
2022-10-23T03:17:01.619Z,0.25
2022-10-23T03:19:30.828Z,0.26
2022-10-23T03:22:00.100Z,0.26
2022-10-23T03:24:29.418Z,0.29
2022-10-23T03:26:58.704Z,0.32
2022-10-23T03:29:28.391Z,0.33
2022-10-23T03:31:57.541Z,0.31
2022-10-23T03:34:26.844Z,0.29
2022-10-23T03:36:56.285Z,0.27
2022-10-23T03:39:25.600Z,0.27
2022-10-23T03:41:55.270Z,0.26
2022-10-23T03:44:24.310Z,0.28
2022-10-23T03:46:53.744Z,0.29
2022-10-23T03:49:22.985Z,0.25
2022-10-23T03:51:53.836Z,0.22
2022-10-23T03:54:29.230Z,0.20
2022-10-23T03:56:59.186Z,0.22
2022-10-23T03:59:29.510Z,0.27
2022-10-23T04:01:58.817Z,0.29
2022-10-23T04:04:28.119Z,0.31
2022-10-23T04:06:57.126Z,0.34
2022-10-23T04:09:26.523Z,0.37
2022-10-23T04:11:58.347Z,0.37
2022-10-23T04:14:28.347Z,0.38
2022-10-23T04:16:57.802Z,0.38
2022-10-23T04:19:27.424Z,0.39
2022-10-23T04:21:58.153Z,0.41
2022-10-23T04:24:28.318Z,0.40
2022-10-23T04:26:57.460Z,0.40
2022-10-23T04:29:32.596Z,0.34
2022-10-23T04:32:01.872Z,0.29
2022-10-23T04:34:31.052Z,0.25
2022-10-23T04:37:00.344Z,0.24
2022-10-23T04:39:29.707Z,0.25
2022-10-23T04:41:59.054Z,0.28
2022-10-23T04:44:28.377Z,0.31
2022-10-23T04:46:58.180Z,0.33
2022-10-23T04:49:27.518Z,0.33
2022-10-23T04:51:56.650Z,0.31
2022-10-23T04:54:25.935Z,0.26
2022-10-23T04:56:55.259Z,0.18
2022-10-23T04:59:24.414Z,0.19
2022-10-23T05:01:53.594Z,0.24
2022-10-23T05:04:23.071Z,0.22
2022-10-23T05:06:52.400Z,0.23
2022-10-23T05:09:21.371Z,0.21
2022-10-23T05:11:50.921Z,0.18
2022-10-23T05:14:22.692Z,0.18
2022-10-23T05:17:09.390Z,0.17
2022-10-23T05:19:47.596Z,0.17
2022-10-23T05:22:19.645Z,0.15
2022-10-23T05:24:50.600Z,0.16
2022-10-23T05:27:20.187Z,0.18
2022-10-23T05:29:52.221Z,0.13
2022-10-23T05:32:22.962Z,0.14
2022-10-23T05:34:52.604Z,0.15
2022-10-23T05:37:22.438Z,0.15
2022-10-23T05:39:51.744Z,0.14
2022-10-23T05:42:23.591Z,0.13
2022-10-23T05:44:52.782Z,0.18
2022-10-23T05:47:22.099Z,0.19
2022-10-23T05:49:51.638Z,0.21
2022-10-23T05:52:21.351Z,0.25
2022-10-23T05:54:55.119Z,0.26
2022-10-23T05:57:24.602Z,0.27
2022-10-23T05:59:54.094Z,0.27
2022-10-23T06:02:23.662Z,0.25
2022-10-23T06:04:52.809Z,0.25
2022-10-23T06:07:29.161Z,0.22
2022-10-23T06:10:01.458Z,0.14
2022-10-23T06:12:31.019Z,0.10
2022-10-23T06:15:00.154Z,0.08
2022-10-23T06:17:30.501Z,0.09
2022-10-23T06:20:03.676Z,0.09
2022-10-23T06:22:33.043Z,0.09
2022-10-23T06:25:02.030Z,0.09
2022-10-23T06:27:31.314Z,0.08
2022-10-23T06:30:00.463Z,0.09
2022-10-23T06:32:33.802Z,0.10
2022-10-23T06:35:02.945Z,0.12
2022-10-23T06:37:35.625Z,0.15
2022-10-23T06:40:05.334Z,0.17
2022-10-23T06:42:34.689Z,0.15
2022-10-23T06:45:06.445Z,0.16
2022-10-23T06:47:36.483Z,0.17
2022-10-23T06:50:06.210Z,0.14
2022-10-23T06:52:46.420Z,0.09
2022-10-23T06:55:17.373Z,0.08
2022-10-23T06:57:47.591Z,0.09
2022-10-23T07:00:16.912Z,0.11
2022-10-23T07:02:46.292Z,0.14
2022-10-23T07:05:15.646Z,0.16
2022-10-23T07:07:44.754Z,0.19
2022-10-23T07:12:50.186Z,0.21
2022-10-23T07:15:19.556Z,0.19
2022-10-23T07:17:48.731Z,0.20
2022-10-23T07:20:18.163Z,0.20
2022-10-23T07:22:56.954Z,0.18
2022-10-23T07:25:30.977Z,0.19
2022-10-23T07:28:00.732Z,0.21
2022-10-23T07:30:29.988Z,0.23
2022-10-23T07:32:59.051Z,0.26
2022-10-23T07:35:28.189Z,0.29
2022-10-23T07:37:57.713Z,0.26
2022-10-23T07:40:27.090Z,0.26
2022-10-23T07:42:56.197Z,0.30
2022-10-23T07:45:25.584Z,0.25
2022-10-23T07:47:54.741Z,0.21
2022-10-23T07:50:24.005Z,0.20
2022-10-23T07:52:53.226Z,0.16
2022-10-23T07:55:22.685Z,0.16
2022-10-23T07:57:51.958Z,0.18
2022-10-23T08:00:21.509Z,0.18
2022-10-23T08:02:50.846Z,0.16
2022-10-23T08:05:22.493Z,0.16
2022-10-23T08:07:51.690Z,0.19
2022-10-23T08:10:21.070Z,0.19
2022-10-23T08:12:50.315Z,0.19
2022-10-23T08:15:19.711Z,0.17
2022-10-23T08:17:48.857Z,0.16
2022-10-23T08:20:18.363Z,0.16
2022-10-23T08:22:47.522Z,0.15
2022-10-23T08:25:17.232Z,0.19
2022-10-23T08:27:52.139Z,0.26
2022-10-23T08:30:21.911Z,0.34
2022-10-23T08:32:51.380Z,0.38
2022-10-23T08:35:21.110Z,0.40
2022-10-23T08:37:50.441Z,0.39
2022-10-23T08:40:24.989Z,0.38
2022-10-23T08:43:34.057Z,0.38
2022-10-23T08:46:12.620Z,0.34
2022-10-23T08:48:51.038Z,0.31
2022-10-23T08:51:43.048Z,0.25
2022-10-23T08:54:44.833Z,0.29
2022-10-23T08:57:18.969Z,0.36
2022-10-23T08:59:51.522Z,0.35
2022-10-23T09:02:40.485Z,0.33
2022-10-23T09:05:26.646Z,0.31
2022-10-23T09:08:44.852Z,0.28
2022-10-23T09:11:55.744Z,0.22
2022-10-23T09:14:57.530Z,0.12
2022-10-23T09:17:40.338Z,0.08
2022-10-23T09:20:21.720Z,0.09
2022-10-23T09:23:23.565Z,0.08
2022-10-23T09:25:58.356Z,0.09
2022-10-23T09:28:37.822Z,0.10
2022-10-23T09:31:15.885Z,0.08
2022-10-23T09:34:00.870Z,0.09
2022-10-23T09:36:31.712Z,0.09
2022-10-23T09:39:02.624Z,0.10
2022-10-23T09:41:44.851Z,0.15
2022-10-23T09:44:35.382Z,0.21
2022-10-23T09:47:13.081Z,0.21
2022-10-23T09:49:50.101Z,0.22
2022-10-23T09:52:19.442Z,0.19
2022-10-23T09:54:59.686Z,0.16
2022-10-23T09:57:41.973Z,0.19
2022-10-23T10:00:28.803Z,0.22
2022-10-23T10:03:28.979Z,0.19
2022-10-23T10:06:05.880Z,0.21
2022-10-23T10:08:56.822Z,0.20
2022-10-23T10:12:22.355Z,0.17
2022-10-23T10:15:36.491Z,0.16
2022-10-23T10:18:17.448Z,0.21
2022-10-23T10:21:04.793Z,0.25
2022-10-23T10:23:46.521Z,0.25
2022-10-23T10:27:11.961Z,0.22
2022-10-23T10:30:05.938Z,0.17
2022-10-23T10:33:11.017Z,0.11
2022-10-23T10:35:55.038Z,0.11
2022-10-23T10:39:01.268Z,0.08
2022-10-23T10:41:48.337Z,0.10
2022-10-23T10:45:02.891Z,0.12
2022-10-23T10:48:23.065Z,0.11
2022-10-23T10:51:08.227Z,0.10
2022-10-23T10:54:17.335Z,0.14
2022-10-23T10:56:49.922Z,0.18
2022-10-23T10:59:44.285Z,0.20
2022-10-23T11:02:35.235Z,0.21
2022-10-23T11:05:24.915Z,0.22
2022-10-23T11:08:22.732Z,0.15
2022-10-23T11:10:59.673Z,0.14
2022-10-23T11:13:41.568Z,0.12
2022-10-23T11:16:31.363Z,0.11
2022-10-23T11:19:31.597Z,0.06
2022-10-23T11:22:12.369Z,0.02
2022-10-23T11:25:06.550Z,-0.00
2022-10-23T11:28:10.744Z,0.02
2022-10-23T11:30:56.094Z,0.01
2022-10-23T11:33:49.016Z,0.01
2022-10-23T11:36:55.828Z,0.04
2022-10-23T11:39:37.944Z,0.07
2022-10-23T11:42:07.265Z,0.06
2022-10-23T11:44:52.471Z,0.03
2022-10-23T11:47:38.849Z,0.00
2022-10-23T11:50:14.539Z,0.02
2022-10-23T11:53:16.354Z,0.01
2022-10-23T11:56:11.342Z,-0.04
2022-10-23T11:59:19.712Z,-0.06
2022-10-23T12:01:52.703Z,-0.05
2022-10-23T12:04:36.671Z,-0.03
2022-10-23T12:07:24.349Z,-0.01
2022-10-23T12:10:02.521Z,-0.00
2022-10-23T12:12:44.320Z,0.00
2022-10-23T12:15:22.228Z,0.01
2022-10-23T12:17:55.844Z,0.02
2022-10-23T12:20:48.487Z,0.00
2022-10-23T12:23:53.445Z,-0.02
2022-10-23T12:26:38.904Z,-0.09
2022-10-23T12:30:04.626Z,-0.14
2022-10-23T12:32:55.363Z,-0.14
2022-10-23T12:36:06.727Z,-0.14
2022-10-23T12:38:41.306Z,-0.10
2022-10-23T12:41:19.123Z,-0.09
2022-10-23T12:44:00.857Z,-0.10
2022-10-23T12:46:43.400Z,-0.12
2022-10-23T12:49:25.885Z,-0.05
2022-10-23T12:52:02.266Z,-0.02
2022-10-23T12:54:41.809Z,-0.05
2022-10-23T12:57:43.871Z,-0.10
2022-10-23T13:00:20.921Z,-0.10
2022-10-23T13:03:05.070Z,-0.17
2022-10-23T13:05:34.911Z,-0.17
2022-10-23T13:08:06.541Z,-0.16
2022-10-23T13:10:36.019Z,-0.17
2022-10-23T13:13:08.911Z,-0.16
2022-10-23T13:15:46.841Z,-0.12
2022-10-23T13:18:18.045Z,-0.14
2022-10-23T13:20:58.700Z,-0.15
2022-10-23T13:23:38.015Z,-0.11
2022-10-23T13:26:29.998Z,-0.08
2022-10-23T13:29:00.168Z,-0.01
2022-10-23T13:31:35.330Z,0.03
2022-10-23T13:34:06.309Z,0.05
2022-10-23T13:36:40.841Z,0.08
2022-10-23T13:39:13.465Z,0.10
2022-10-23T13:41:48.573Z,0.10
2022-10-23T13:44:21.884Z,0.05
2022-10-23T13:46:53.100Z,-0.01
2022-10-23T13:49:22.536Z,-0.04
2022-10-23T13:51:55.636Z,-0.08
2022-10-23T13:57:02.741Z,-0.13
2022-10-23T13:59:32.021Z,-0.16
2022-10-23T14:02:01.971Z,-0.20
2022-10-23T14:04:31.278Z,-0.16
2022-10-23T14:07:00.825Z,-0.14
2022-10-23T14:09:30.168Z,-0.14
2022-10-23T14:11:59.574Z,-0.12
2022-10-23T14:14:28.920Z,-0.06
2022-10-23T14:16:58.009Z,-0.01
2022-10-23T14:19:27.348Z,0.03
2022-10-23T14:21:56.604Z,0.03
2022-10-23T14:24:25.916Z,-0.02
2022-10-23T14:26:55.026Z,-0.03
2022-10-23T14:29:24.629Z,-0.08
2022-10-23T14:31:54.074Z,-0.07
2022-10-23T14:34:23.394Z,-0.05
2022-10-23T14:37:07.410Z,-0.07
2022-10-23T14:39:38.383Z,-0.12
2022-10-23T14:42:07.766Z,-0.15
2022-10-23T14:44:39.920Z,-0.14
2022-10-23T14:47:09.359Z,-0.14
2022-10-23T14:49:41.033Z,-0.16
2022-10-23T14:52:10.857Z,-0.18
2022-10-23T14:54:39.955Z,-0.18
2022-10-23T14:57:09.001Z,-0.20
2022-10-23T14:59:38.302Z,-0.21
2022-10-23T15:02:07.631Z,-0.20
2022-10-23T15:04:37.028Z,-0.24
2022-10-23T15:07:06.782Z,-0.28
2022-10-23T15:09:37.728Z,-0.30
2022-10-23T15:12:08.558Z,-0.29
2022-10-23T15:14:37.784Z,-0.28
2022-10-23T15:17:06.888Z,-0.25
2022-10-23T15:19:36.192Z,-0.22
2022-10-23T15:22:05.659Z,-0.19
2022-10-23T15:24:35.243Z,-0.12
2022-10-23T15:27:04.932Z,-0.09
2022-10-23T15:29:34.599Z,-0.07
2022-10-23T15:32:06.762Z,-0.01
2022-10-23T15:34:36.315Z,0.01
2022-10-23T15:37:06.431Z,0.04
2022-10-23T15:39:36.562Z,0.07
2022-10-23T15:42:08.343Z,0.10
2022-10-23T15:44:37.805Z,0.11
2022-10-23T15:47:07.676Z,0.10
2022-10-23T15:49:38.246Z,0.05
2022-10-23T15:54:39.971Z,0.05
2022-10-23T15:57:09.262Z,0.04
2022-10-23T15:59:38.445Z,0.07
2022-10-23T16:02:07.969Z,0.13
2022-10-23T16:04:37.956Z,0.18
2022-10-23T16:07:08.467Z,0.24
2022-10-23T16:09:38.676Z,0.28
2022-10-23T16:12:08.343Z,0.34
2022-10-23T16:14:37.517Z,0.35
2022-10-23T16:17:08.581Z,0.33
2022-10-23T16:19:38.060Z,0.33
2022-10-23T16:22:07.840Z,0.34
2022-10-23T16:24:37.372Z,0.35
2022-10-23T16:27:07.222Z,0.37
2022-10-23T16:29:36.513Z,0.37
2022-10-23T16:32:05.822Z,0.40
2022-10-23T16:34:34.917Z,0.42
2022-10-23T16:37:04.218Z,0.38
2022-10-23T16:39:33.544Z,0.40
2022-10-23T16:42:03.177Z,0.46
2022-10-23T16:44:32.426Z,0.46
2022-10-23T16:47:01.572Z,0.48
2022-10-23T16:49:32.210Z,0.48
2022-10-23T16:52:01.398Z,0.51
2022-10-23T16:54:30.647Z,0.52
2022-10-23T16:56:59.877Z,0.50
2022-10-23T16:59:29.079Z,0.54
2022-10-23T17:01:58.539Z,0.58
2022-10-23T17:04:27.882Z,0.59
2022-10-23T17:06:57.409Z,0.60
2022-10-23T17:09:28.729Z,0.64
2022-10-23T17:11:58.451Z,0.69
2022-10-23T17:14:31.562Z,0.74
2022-10-23T17:17:03.472Z,0.80
2022-10-23T17:19:44.231Z,0.81
2022-10-23T17:22:15.690Z,0.87
2022-10-23T17:24:48.761Z,0.90
2022-10-23T17:27:21.250Z,0.94
2022-10-23T17:29:50.599Z,1.01
2022-10-23T17:32:22.869Z,1.05
2022-10-23T17:34:52.414Z,1.00
2022-10-23T17:37:21.667Z,1.01
2022-10-23T17:39:51.342Z,1.04
2022-10-23T17:42:21.372Z,1.08
2022-10-23T17:44:50.975Z,1.09
2022-10-23T17:47:20.463Z,1.12
2022-10-23T17:49:49.661Z,1.17
2022-10-23T17:52:18.914Z,1.22
2022-10-23T17:54:52.152Z,1.28
2022-10-23T17:59:55.479Z,1.40
2022-10-23T18:02:24.910Z,1.49
2022-10-23T18:04:55.086Z,1.52
2022-10-23T18:07:26.755Z,1.50
2022-10-23T18:09:57.232Z,1.52
2022-10-23T18:12:27.204Z,1.59
2022-10-23T18:14:57.384Z,1.62
2022-10-23T18:17:26.427Z,1.63
2022-10-23T18:19:59.566Z,1.59
2022-10-23T18:22:31.349Z,1.65
2022-10-23T18:25:01.463Z,1.72
2022-10-23T18:27:30.745Z,1.77
2022-10-23T18:30:00.188Z,1.83
2022-10-23T18:32:31.069Z,1.90
2022-10-23T18:35:00.502Z,1.97
2022-10-23T18:37:31.832Z,2.04
2022-10-23T18:40:02.150Z,2.12
2022-10-23T18:42:31.282Z,2.15
2022-10-23T18:45:00.543Z,2.16
2022-10-23T18:47:29.723Z,2.15
2022-10-23T18:49:59.680Z,2.13
2022-10-23T18:52:28.625Z,2.13
2022-10-23T18:54:57.871Z,2.19
2022-10-23T18:57:27.325Z,2.24
2022-10-23T18:59:59.195Z,2.28
2022-10-23T19:02:29.042Z,2.32
2022-10-23T19:04:58.441Z,2.36
2022-10-23T19:07:28.511Z,2.38
2022-10-23T19:09:58.266Z,2.42
2022-10-23T19:12:27.542Z,2.47
2022-10-23T19:14:56.846Z,2.52
2022-10-23T19:17:41.316Z,2.56
2022-10-23T19:20:19.284Z,2.58
2022-10-23T19:22:53.679Z,2.58
2022-10-23T19:25:32.628Z,2.57
2022-10-23T19:28:04.151Z,2.55
2022-10-23T19:30:34.178Z,2.53
2022-10-23T19:33:03.795Z,2.51
2022-10-23T19:35:33.223Z,2.53
2022-10-23T19:38:02.695Z,2.46
2022-10-23T19:40:31.908Z,2.45
2022-10-23T19:43:02.329Z,2.46
2022-10-23T19:48:00.842Z,2.53
2022-10-23T19:50:29.708Z,2.54
2022-10-23T19:52:59.438Z,2.50
2022-10-23T19:55:28.559Z,2.55
2022-10-23T19:57:57.565Z,2.56
2022-10-23T20:00:26.963Z,2.53
2022-10-23T20:02:56.934Z,2.56
2022-10-23T20:05:25.927Z,2.63
2022-10-23T20:07:55.044Z,2.66
2022-10-23T20:10:24.556Z,2.68
2022-10-23T20:12:56.899Z,2.72
2022-10-23T20:15:31.555Z,2.74
2022-10-23T20:18:00.965Z,2.77
2022-10-23T20:20:30.121Z,2.80
2022-10-23T20:23:00.130Z,2.84
2022-10-23T20:25:29.417Z,2.89
2022-10-23T20:27:58.435Z,2.93
2022-10-23T20:30:27.498Z,2.94
2022-10-23T20:32:56.722Z,2.98
2022-10-23T20:35:26.068Z,3.02
2022-10-23T20:37:55.451Z,3.07
2022-10-23T20:40:24.437Z,3.13
2022-10-23T20:42:53.467Z,3.17
2022-10-23T20:45:22.519Z,3.17
2022-10-23T20:47:51.606Z,3.19
2022-10-23T20:50:21.887Z,3.22
2022-10-23T20:52:51.453Z,3.26
2022-10-23T20:55:20.818Z,3.26
2022-10-23T20:57:50.113Z,3.26
2022-10-23T21:00:19.440Z,3.27
2022-10-23T21:02:51.344Z,3.34
2022-10-23T21:05:22.329Z,3.38
2022-10-23T21:07:51.381Z,3.43
2022-10-23T21:10:20.749Z,3.45
2022-10-23T21:12:49.631Z,3.44
2022-10-23T21:15:19.188Z,3.48
2022-10-23T21:17:50.914Z,3.47
2022-10-23T21:20:19.897Z,3.42
2022-10-23T21:22:49.254Z,3.39
2022-10-23T21:25:18.375Z,3.39
2022-10-23T21:27:47.729Z,3.41
2022-10-23T21:30:17.002Z,3.40
2022-10-23T21:32:46.161Z,3.43
2022-10-23T21:35:15.239Z,3.48
2022-10-23T21:37:44.604Z,3.50
2022-10-23T21:40:14.179Z,3.51
2022-10-23T21:42:44.091Z,3.50
2022-10-23T21:45:13.281Z,3.48
2022-10-23T21:47:42.601Z,3.51
2022-10-23T21:50:12.850Z,3.55
2022-10-23T21:52:42.804Z,3.54
2022-10-23T21:55:12.308Z,3.54
2022-10-23T21:57:41.348Z,3.53
2022-10-23T22:00:11.326Z,3.57
2022-10-23T22:02:40.962Z,3.58
2022-10-23T22:05:10.328Z,3.58
2022-10-23T22:07:39.443Z,3.57
2022-10-23T22:10:09.230Z,3.55
2022-10-23T22:12:38.171Z,3.55
2022-10-23T22:15:13.469Z,3.52
2022-10-23T22:17:42.755Z,3.51
2022-10-23T22:20:12.505Z,3.50
2022-10-23T22:22:41.868Z,3.46
2022-10-23T22:25:11.474Z,3.43
2022-10-23T22:27:40.651Z,3.41
2022-10-23T22:30:10.035Z,3.39
2022-10-23T22:32:39.119Z,3.38
2022-10-23T22:35:08.889Z,3.37
2022-10-23T22:37:37.999Z,3.38
2022-10-23T22:40:09.506Z,3.39
2022-10-23T22:42:39.855Z,3.39
2022-10-23T22:45:09.870Z,3.38
2022-10-23T22:47:39.028Z,3.38
2022-10-23T22:50:09.196Z,3.39
2022-10-23T22:52:38.250Z,3.39
2022-10-23T22:55:08.446Z,3.39
2022-10-23T22:57:37.667Z,3.35
2022-10-23T23:00:08.500Z,3.28
2022-10-23T23:02:37.632Z,3.23
2022-10-23T23:05:07.679Z,3.20
2022-10-23T23:07:36.576Z,3.26
2022-10-23T23:10:06.128Z,3.31
2022-10-23T23:12:37.953Z,3.24
2022-10-23T23:15:07.508Z,3.17
2022-10-23T23:17:36.436Z,3.12
2022-10-23T23:20:06.379Z,3.04
2022-10-23T23:22:35.437Z,2.94
2022-10-23T23:25:05.145Z,2.93
2022-10-23T23:27:34.050Z,2.93
2022-10-23T23:30:03.614Z,2.91
2022-10-23T23:32:32.912Z,2.88
2022-10-23T23:35:03.798Z,2.88
2022-10-23T23:37:32.785Z,2.88
2022-10-23T23:40:01.814Z,2.89
2022-10-23T23:42:32.410Z,2.90
2022-10-23T23:45:10.250Z,2.88
2022-10-23T23:47:46.504Z,2.85
2022-10-23T23:50:15.989Z,2.84
2022-10-23T23:52:45.043Z,2.82
2022-10-23T23:55:14.442Z,2.80
2022-10-23T23:57:43.636Z,2.78
